Groomtown, North Carolina
Current Conditions -  °F | °C
As of 2:54 PM on Sunday 25 Jan 2015 (Local Time) from KGSO Reporting Station
Broken Clouds Broken Clouds  
Wind Chill: 54°   Ceiling: 25000
Heat Index: 54°   Visibility: 10mi
Dew Point: 31°   Wind: 9mph
Humidity: 41%   Direction: 200°SSW
Pressure: 29.79"   Gusts: NA
Location:  36.011°N, 79.8751°W
Report Text: KGSO 251954Z 20008KT 10SM BKN250 12/M01 A2979 RMK AO2 SLP088 T01221006
Loading
Personal Weather Stations






























Interactive Weather Map New forecast layout! Learn more

10-Day Weather Forecast

Advertisements
Track Severe Weather on mobile